Aérodrome :
LOGIN :

S'inscrire | Disclaimer

   EN    FR    IT 

 










Légende :    VFR   VFR Marginal   IFR   IFR Intensif   IFR Très Intensif
Visi : 
Plafond : 
>= 8 km
>= 3000ft
5 à 8 km
1000 à 3000 ft
1500m à 5 km
500 à 1000 ft
800 à 1500m
200 à 500 ft
< 800m
< 200 ft
Symboles :   Orages  Brouillard  Fortes neiges  Fortes précipitations  Vent > 20 kt
SIGMETs :   Divers  Orages  Givrage  Turbulence  Onde Orograph.  Cendres Volcan.







- Altitude de l'aérodrome : 844 ft
- Code IATA : OSR


LKMT - Ostrava-Mosnov

DERNIER METAR :
  • 171900Z 19003KT 4000 -RA BR OVC010 04/03 Q1023 NOSIG

METARs EXPIRÉS :
  • 171830Z 21003KT 5000 -DZ BR OVC013 04/03 Q1023 TEMPO 4000 -DZ BR OVC010
  • 171800Z 22004KT 5000 BR OVC015 04/03 Q1023 TEMPO 4000 -RA BR OVC010
  • 171730Z 23003KT 5000 BR OVC017 04/03 Q1023 TEMPO 4000 -RA BR OVC010
  • 171700Z 23004KT 5000 BR OVC019 04/02 Q1023 NOSIG
  • 171630Z 21003KT 6000 OVC020 04/03 Q1023 NOSIG

TAF TAF LKMT
Valide du 17 à 18h jusqu'au 19 à 00h UTC


171700Z 1718/1900 VRB02KT 3000 BR BKN020
TEMPO 1718/1723 6000 -RA BKN008
BECMG 1723/1802 VRB02KT 1200 BR OVC005
TEMPO 1802/1807 0600 FG BKN003
BECMG 1810/1812 21008KT 9999 BKN030
TEMPO 1812/1818 SCT040
Pas de NOTAMs connus pour ce terrain.



MET'MAP, la Météo Aéronautique d'un coup d'oeil ! - Copyright ORBIFLY Décembre 2007 - Disclaimer

ORBIFLY MET'MAP TEAM :

Programmation & Développement : Alexandra Zaïnal
Conception & Développement : Baudouin d'Aumeries
Co-Programmation & Développement : Marc-Olivier Méhu
Soutien technique & logistique : Manuel Goepfert

Contact : metmap@orbifly.com




SOURCES & CREDITS :

   NOAA